Time,TemperatureF,DewpointF,PressureIn,WindDirection,WindDirectionDegrees,WindSpeedMPH,WindSpeedGustMPH,Humidity,HourlyPrecipIn,Conditions,Clouds,dailyrainin,SoftwareType,DateUTC
2013-01-22 00:02:00,28.0,26.0,29.48,West,273,0.0,0.0,93,0.00,,,0.11,,2013-01-22 00:02:00,
2013-01-22 00:11:00,28.0,26.0,29.48,West,273,0.0,0.0,93,0.00,,,0.11,,2013-01-22 00:11:00,
2013-01-22 00:22:00,27.0,25.0,29.49,West,273,0.0,2.0,93,0.00,,,0.11,,2013-01-22 00:22:00,
2013-01-22 00:32:00,27.0,25.0,29.49,West,273,0.0,0.0,93,0.00,,,0.11,,2013-01-22 00:32:00,
2013-01-22 00:42:00,27.0,25.0,29.49,West,273,0.0,0.0,93,0.00,,,0.11,,2013-01-22 00:42:00,
2013-01-22 00:53:00,27.0,25.0,29.49,West,273,0.0,0.0,93,0.00,,,0.11,,2013-01-22 00:53:00,
2013-01-22 01:02:00,27.0,25.0,29.50,West,273,0.0,0.0,93,0.00,,,0.11,,2013-01-22 01:02:00,
2013-01-22 01:12:00,27.0,25.0,29.50,West,273,0.0,0.0,93,0.00,,,0.11,,2013-01-22 01:12:00,
2013-01-22 01:22:00,27.0,25.0,29.49,West,273,1.0,3.0,93,0.00,,,0.11,,2013-01-22 01:22:00,
2013-01-22 01:32:00,26.0,24.0,29.50,West,273,0.0,2.0,93,0.00,,,0.11,,2013-01-22 01:32:00,
2013-01-22 01:42:00,26.0,24.0,29.50,West,273,0.0,2.0,93,0.00,,,0.11,,2013-01-22 01:42:00,
2013-01-22 01:52:00,26.0,24.0,29.50,West,273,0.0,2.0,93,0.00,,,0.11,,2013-01-22 01:52:00,
2013-01-22 02:02:00,26.0,24.0,29.50,West,273,0.0,1.0,93,0.00,,,0.11,,2013-01-22 02:02:00,
2013-01-22 02:12:00,26.0,24.0,29.50,West,273,0.0,1.0,93,0.00,,,0.11,,2013-01-22 02:12:00,
2013-01-22 02:22:00,26.0,24.0,29.49,West,273,1.0,2.0,93,0.00,,,0.11,,2013-01-22 02:22:00,
2013-01-22 02:32:00,26.0,25.0,29.50,West,273,2.0,3.0,94,0.00,,,0.11,,2013-01-22 02:32:00,
2013-01-22 02:42:00,26.0,25.0,29.50,West,273,2.0,3.0,94,0.00,,,0.11,,2013-01-22 02:42:00,
2013-01-22 02:53:00,26.0,25.0,29.50,West,273,0.0,3.0,94,0.00,,,0.11,,2013-01-22 02:53:00,
2013-01-22 03:02:00,26.0,25.0,29.50,West,273,1.0,2.0,94,0.00,,,0.11,,2013-01-22 03:02:00,
2013-01-22 03:12:00,26.0,25.0,29.50,West,273,1.0,2.0,94,0.00,,,0.11,,2013-01-22 03:12:00,
2013-01-22 03:22:00,26.0,25.0,29.49,West,273,0.0,3.0,94,0.00,,,0.11,,2013-01-22 03:22:00,
2013-01-22 03:32:00,25.0,24.0,29.49,West,273,1.0,3.0,94,0.00,,,0.11,,2013-01-22 03:32:00,
2013-01-22 03:42:00,25.0,24.0,29.49,West,273,1.0,3.0,94,0.00,,,0.11,,2013-01-22 03:42:00,
2013-01-22 03:52:00,25.0,24.0,29.50,West,273,0.0,0.0,94,0.00,,,0.11,,2013-01-22 03:52:00,
2013-01-22 04:02:00,25.0,24.0,29.50,West,273,0.0,0.0,94,0.00,,,0.11,,2013-01-22 04:02:00,
2013-01-22 04:11:00,25.0,24.0,29.50,West,273,0.0,0.0,94,0.00,,,0.11,,2013-01-22 04:11:00,
2013-01-22 04:22:00,25.0,24.0,29.51,West,273,0.0,2.0,94,0.00,,,0.11,,2013-01-22 04:22:00,
2013-01-22 04:32:00,25.0,24.0,29.51,West,273,0.0,0.0,94,0.00,,,0.11,,2013-01-22 04:32:00,
2013-01-22 04:42:00,25.0,24.0,29.51,West,273,0.0,0.0,94,0.00,,,0.11,,2013-01-22 04:42:00,
2013-01-22 04:52:00,24.0,23.0,29.50,West,273,2.0,3.0,94,0.00,,,0.11,,2013-01-22 04:52:00,
2013-01-22 05:03:00,25.0,24.0,29.50,SSE,158,3.0,6.0,94,0.00,,,0.11,,2013-01-22 05:03:00,
2013-01-22 05:12:00,25.0,24.0,29.50,SSE,158,3.0,6.0,94,0.00,,,0.11,,2013-01-22 05:12:00,
2013-01-22 05:22:00,25.0,24.0,29.50,SE,144,3.0,5.0,95,0.00,,,0.11,,2013-01-22 05:22:00,
2013-01-22 05:32:00,25.0,24.0,29.50,SE,144,3.0,5.0,95,0.00,,,0.11,,2013-01-22 05:32:00,
2013-01-22 05:42:00,26.0,25.0,29.50,SE,142,2.0,3.0,95,0.00,,,0.11,,2013-01-22 05:42:00,
2013-01-22 05:53:00,26.0,25.0,29.50,SE,142,2.0,5.0,95,0.00,,,0.11,,2013-01-22 05:53:00,
2013-01-22 06:02:00,26.0,25.0,29.51,SE,142,0.0,3.0,94,0.00,,,0.11,,2013-01-22 06:02:00,
2013-01-22 06:11:00,26.0,25.0,29.51,SE,142,0.0,3.0,94,0.00,,,0.11,,2013-01-22 06:11:00,
2013-01-22 06:22:00,26.0,25.0,29.51,SE,142,2.0,3.0,95,0.00,,,0.11,,2013-01-22 06:22:00,
2013-01-22 06:32:00,26.0,25.0,29.51,SE,142,1.0,3.0,94,0.00,,,0.11,,2013-01-22 06:32:00,
2013-01-22 06:42:00,26.0,25.0,29.51,SE,142,1.0,3.0,94,0.00,,,0.11,,2013-01-22 06:42:00,
2013-01-22 06:52:00,28.0,27.0,29.52,South,177,5.0,12.0,95,0.00,,,0.11,,2013-01-22 06:52:00,
2013-01-22 07:02:00,28.0,27.0,29.52,SE,145,6.0,10.0,95,0.00,,,0.11,,2013-01-22 07:02:00,
2013-01-22 07:11:00,28.0,27.0,29.52,SE,145,6.0,10.0,95,0.00,,,0.11,,2013-01-22 07:11:00,
2013-01-22 07:22:00,29.0,28.0,29.52,SSE,158,5.0,10.0,95,0.00,,,0.11,,2013-01-22 07:22:00,
2013-01-22 07:32:00,29.0,28.0,29.52,SE,127,6.0,9.0,95,0.00,,,0.11,,2013-01-22 07:32:00,
2013-01-22 07:42:00,29.0,28.0,29.52,SE,127,6.0,9.0,95,0.00,,,0.11,,2013-01-22 07:42:00,
2013-01-22 07:52:00,29.0,28.0,29.52,SSE,149,6.0,12.0,95,0.00,,,0.11,,2013-01-22 07:52:00,
2013-01-22 08:02:00,30.0,29.0,29.52,SE,145,6.0,8.0,95,0.00,,,0.11,,2013-01-22 08:02:00,
2013-01-22 08:11:00,30.0,29.0,29.52,SE,145,6.0,8.0,95,0.00,,,0.11,,2013-01-22 08:11:00,
2013-01-22 08:22:00,30.0,29.0,29.52,SE,146,6.0,9.0,95,0.00,,,0.11,,2013-01-22 08:22:00,
2013-01-22 08:32:00,30.0,29.0,29.52,SSE,152,5.0,8.0,96,0.00,,,0.11,,2013-01-22 08:32:00,
2013-01-22 08:42:00,30.0,29.0,29.52,SSE,152,5.0,8.0,96,0.00,,,0.11,,2013-01-22 08:42:00,
2013-01-22 08:52:00,31.0,30.0,29.52,SE,142,5.0,8.0,95,0.00,,,0.11,,2013-01-22 08:52:00,
2013-01-22 09:02:00,31.0,30.0,29.53,SE,140,3.0,8.0,96,0.00,,,0.11,,2013-01-22 09:02:00,
2013-01-22 09:11:00,31.0,30.0,29.53,SE,140,3.0,8.0,96,0.00,,,0.11,,2013-01-22 09:11:00,
2013-01-22 09:22:00,31.0,30.0,29.53,SE,146,1.0,5.0,95,0.00,,,0.11,,2013-01-22 09:22:00,
2013-01-22 09:32:00,31.0,30.0,29.53,SSE,152,5.0,12.0,95,0.00,,,0.11,,2013-01-22 09:32:00,
2013-01-22 09:42:00,31.0,30.0,29.53,SSE,152,5.0,12.0,95,0.00,,,0.11,,2013-01-22 09:42:00,
2013-01-22 09:52:00,32.0,31.0,29.53,South,169,6.0,12.0,96,0.00,,,0.11,,2013-01-22 09:52:00,
2013-01-22 10:02:00,32.0,31.0,29.54,SSE,150,6.0,9.0,96,0.00,,,0.11,,2013-01-22 10:02:00,
2013-01-22 10:11:00,32.0,31.0,29.54,SSE,150,6.0,9.0,96,0.00,,,0.11,,2013-01-22 10:11:00,
2013-01-22 10:22:00,32.0,31.0,29.54,SE,146,5.0,9.0,96,0.00,,,0.11,,2013-01-22 10:22:00,
2013-01-22 10:32:00,32.0,31.0,29.54,SSE,160,6.0,12.0,95,0.00,,,0.11,,2013-01-22 10:32:00,
2013-01-22 10:42:00,32.0,31.0,29.54,SSE,160,6.0,12.0,95,0.00,,,0.11,,2013-01-22 10:42:00,
2013-01-22 10:52:00,33.0,32.0,29.54,SE,144,3.0,7.0,96,0.00,,,0.11,,2013-01-22 10:52:00,
2013-01-22 11:02:00,33.0,32.0,29.54,SE,142,4.0,8.0,95,0.00,,,0.11,,2013-01-22 11:02:00,
2013-01-22 11:11:00,33.0,32.0,29.54,SE,142,4.0,8.0,95,0.00,,,0.11,,2013-01-22 11:11:00,
2013-01-22 11:22:00,33.0,32.0,29.54,SE,130,5.0,9.0,95,0.00,,,0.11,,2013-01-22 11:22:00,
2013-01-22 11:32:00,34.0,33.0,29.54,SSE,148,5.0,8.0,96,0.00,,,0.11,,2013-01-22 11:32:00,
2013-01-22 11:42:00,34.0,33.0,29.54,SSE,148,5.0,8.0,96,0.00,,,0.11,,2013-01-22 11:42:00,
2013-01-22 11:53:00,34.0,33.0,29.54,SE,142,4.0,8.0,95,0.00,,,0.11,,2013-01-22 11:53:00,
2013-01-22 12:02:00,34.0,33.0,29.54,SE,142,4.0,8.0,95,0.00,,,0.11,,2013-01-22 12:02:00,
2013-01-22 12:12:00,34.0,33.0,29.54,SE,142,4.0,8.0,95,0.00,,,0.11,,2013-01-22 12:12:00,
2013-01-22 12:22:00,35.0,34.0,29.53,SSE,161,7.0,12.0,95,0.00,,,0.11,,2013-01-22 12:22:00,
2013-01-22 12:32:00,35.0,34.0,29.53,SSE,161,7.0,12.0,95,0.00,,,0.11,,2013-01-22 12:32:00,
2013-01-22 12:43:00,35.0,33.0,29.53,SSE,160,7.0,12.0,94,0.00,,,0.11,,2013-01-22 12:43:00,
2013-01-22 12:53:00,35.0,33.0,29.53,SE,135,5.0,9.0,94,0.01,,,0.12,,2013-01-22 12:53:00,
2013-01-22 13:02:00,36.0,34.0,29.53,ESE,122,6.0,10.0,94,0.02,,,0.13,,2013-01-22 13:02:00,
2013-01-22 13:12:00,36.0,34.0,29.53,ESE,122,6.0,10.0,94,0.02,,,0.13,,2013-01-22 13:12:00,
2013-01-22 13:22:00,36.0,34.0,29.52,SE,144,7.0,12.0,93,0.03,,,0.13,,2013-01-22 13:22:00,
2013-01-22 13:32:00,36.0,34.0,29.52,SE,138,4.0,12.0,92,0.03,,,0.13,,2013-01-22 13:32:00,
2013-01-22 13:42:00,36.0,34.0,29.52,SE,138,4.0,12.0,92,0.03,,,0.13,,2013-01-22 13:42:00,
2013-01-22 13:53:00,36.0,34.0,29.52,SE,140,6.0,14.0,91,0.03,,,0.12,,2013-01-22 13:53:00,
2013-01-22 14:02:00,36.0,34.0,29.53,SSE,161,7.0,15.0,91,0.03,,,0.12,,2013-01-22 14:02:00,
2013-01-22 14:12:00,36.0,34.0,29.53,SSE,161,7.0,15.0,91,0.03,,,0.12,,2013-01-22 14:12:00,
2013-01-22 14:22:00,36.0,34.0,29.53,SSE,161,7.0,13.0,91,0.02,,,0.10,,2013-01-22 14:22:00,
2013-01-22 14:33:00,36.0,33.0,29.52,SSE,163,7.0,14.0,90,0.03,,,0.10,,2013-01-22 14:33:00,
2013-01-22 14:43:00,36.0,33.0,29.52,SSE,163,7.0,14.0,90,0.03,,,0.10,,2013-01-22 14:43:00,
2013-01-22 14:53:00,37.0,34.0,29.52,SE,138,8.0,15.0,90,0.02,,,0.09,,2013-01-22 14:53:00,
2013-01-22 15:02:00,37.0,34.0,29.53,SSE,150,6.0,13.0,90,0.02,,,0.10,,2013-01-22 15:02:00,
2013-01-22 15:12:00,37.0,34.0,29.53,SSE,150,6.0,13.0,90,0.02,,,0.10,,2013-01-22 15:12:00,
2013-01-22 15:23:00,36.0,33.0,29.53,SE,136,7.0,17.0,90,0.02,,,0.10,,2013-01-22 15:23:00,
2013-01-22 15:33:00,36.0,33.0,29.53,SSE,148,6.0,12.0,90,0.02,,,0.10,,2013-01-22 15:33:00,
2013-01-22 15:42:00,36.0,33.0,29.53,SSE,148,6.0,12.0,90,0.02,,,0.10,,2013-01-22 15:42:00,
2013-01-22 15:53:00,36.0,33.0,29.54,SE,138,6.0,15.0,88,0.02,,,0.10,,2013-01-22 15:53:00,
2013-01-22 16:02:00,36.0,33.0,29.54,SE,145,6.0,16.0,87,0.02,,,0.09,,2013-01-22 16:02:00,
2013-01-22 16:12:00,36.0,33.0,29.54,SE,145,6.0,16.0,87,0.02,,,0.09,,2013-01-22 16:12:00,
2013-01-22 16:22:00,36.0,32.0,29.54,SE,142,7.0,14.0,85,0.02,,,0.10,,2013-01-22 16:22:00,
2013-01-22 16:32:00,36.0,32.0,29.54,SSE,159,10.0,15.0,84,0.02,,,0.10,,2013-01-22 16:32:00,
2013-01-22 16:42:00,36.0,32.0,29.54,SSE,159,10.0,15.0,84,0.02,,,0.10,,2013-01-22 16:42:00,
2013-01-22 16:53:00,36.0,31.0,29.55,SE,142,12.0,18.0,83,0.01,,,0.09,,2013-01-22 16:53:00,
2013-01-22 17:02:00,36.0,31.0,29.55,SSE,153,10.0,20.0,82,0.01,,,0.09,,2013-01-22 17:02:00,
2013-01-22 17:12:00,36.0,31.0,29.55,SSE,153,10.0,20.0,82,0.01,,,0.09,,2013-01-22 17:12:00,
2013-01-22 17:22:00,36.0,31.0,29.55,SSE,162,10.0,20.0,82,0.01,,,0.10,,2013-01-22 17:22:00,
2013-01-22 17:33:00,36.0,31.0,29.56,SSE,148,10.0,20.0,82,0.01,,,0.10,,2013-01-22 17:33:00,
2013-01-22 17:43:00,36.0,31.0,29.56,SSE,148,10.0,20.0,82,0.01,,,0.10,,2013-01-22 17:43:00,
2013-01-22 17:53:00,36.0,31.0,29.56,SSE,161,11.0,17.0,81,0.01,,,0.10,,2013-01-22 17:53:00,
2013-01-22 18:02:00,36.0,30.0,29.57,SSE,163,10.0,20.0,79,0.02,,,0.11,,2013-01-22 18:02:00,
2013-01-22 18:12:00,36.0,30.0,29.57,SSE,163,10.0,20.0,79,0.02,,,0.11,,2013-01-22 18:12:00,
2013-01-22 18:23:00,36.0,30.0,29.58,South,181,5.0,14.0,79,0.01,,,0.11,,2013-01-22 18:23:00,
2013-01-22 18:33:00,36.0,30.0,29.59,SE,134,6.0,14.0,80,0.01,,,0.11,,2013-01-22 18:33:00,
2013-01-22 18:42:00,36.0,30.0,29.59,SE,134,6.0,14.0,80,0.01,,,0.11,,2013-01-22 18:42:00,
2013-01-22 18:53:00,36.0,31.0,29.59,South,173,8.0,15.0,81,0.01,,,0.11,,2013-01-22 18:53:00,
2013-01-22 19:02:00,36.0,31.0,29.59,SE,140,7.0,14.0,82,0.00,,,0.11,,2013-01-22 19:02:00,
2013-01-22 19:12:00,36.0,31.0,29.59,SE,140,7.0,14.0,82,0.00,,,0.11,,2013-01-22 19:12:00,
2013-01-22 19:22:00,36.0,31.0,29.60,SSE,166,10.0,20.0,82,0.00,,,0.11,,2013-01-22 19:22:00,
2013-01-22 19:32:00,36.0,31.0,29.60,South,179,8.0,20.0,82,0.00,,,0.11,,2013-01-22 19:32:00,
2013-01-22 19:42:00,36.0,31.0,29.60,South,179,8.0,20.0,82,0.00,,,0.11,,2013-01-22 19:42:00,
2013-01-22 19:53:00,35.0,30.0,29.61,South,173,10.0,20.0,83,0.00,,,0.11,,2013-01-22 19:53:00,
2013-01-22 20:02:00,35.0,30.0,29.61,SSE,148,14.0,20.0,83,0.01,,,0.12,,2013-01-22 20:02:00,
2013-01-22 20:12:00,35.0,30.0,29.61,SSE,148,14.0,20.0,83,0.01,,,0.12,,2013-01-22 20:12:00,
2013-01-22 20:22:00,35.0,31.0,29.62,South,171,9.0,22.0,84,0.01,,,0.12,,2013-01-22 20:22:00,
2013-01-22 20:32:00,35.0,31.0,29.62,SSW,198,7.0,16.0,85,0.01,,,0.12,,2013-01-22 20:32:00,
2013-01-22 20:42:00,35.0,31.0,29.62,SSW,198,7.0,16.0,85,0.01,,,0.12,,2013-01-22 20:42:00,
2013-01-22 20:53:00,35.0,31.0,29.62,SSE,150,9.0,21.0,85,0.01,,,0.12,,2013-01-22 20:53:00,
2013-01-22 21:02:00,35.0,31.0,29.62,SSE,163,10.0,26.0,85,0.00,,,0.12,,2013-01-22 21:02:00,
2013-01-22 21:12:00,35.0,31.0,29.62,SSE,163,10.0,26.0,85,0.00,,,0.12,,2013-01-22 21:12:00,
2013-01-22 21:22:00,35.0,31.0,29.62,SSE,152,7.0,20.0,85,0.01,,,0.13,,2013-01-22 21:22:00,
2013-01-22 21:33:00,35.0,31.0,29.62,SE,142,7.0,18.0,84,0.01,,,0.13,,2013-01-22 21:33:00,
2013-01-22 21:42:00,35.0,31.0,29.62,SE,142,7.0,18.0,84,0.01,,,0.13,,2013-01-22 21:42:00,
2013-01-22 21:53:00,36.0,31.0,29.62,SSE,167,11.0,20.0,82,0.01,,,0.13,,2013-01-22 21:53:00,
2013-01-22 22:02:00,36.0,31.0,29.63,SSE,161,9.0,17.0,83,0.01,,,0.13,,2013-01-22 22:02:00,
2013-01-22 22:12:00,36.0,31.0,29.63,SSE,161,9.0,17.0,83,0.01,,,0.13,,2013-01-22 22:12:00,
2013-01-22 22:22:00,36.0,31.0,29.63,SSW,206,10.0,21.0,82,0.00,,,0.13,,2013-01-22 22:22:00,
2013-01-22 22:32:00,36.0,31.0,29.63,SSW,206,10.0,21.0,82,0.00,,,0.13,,2013-01-22 22:32:00,
2013-01-22 22:42:00,37.0,32.0,29.63,SSE,153,10.0,20.0,82,0.00,,,0.13,,2013-01-22 22:42:00,
2013-01-22 22:53:00,37.0,32.0,29.63,SSE,158,14.0,26.0,82,0.01,,,0.13,,2013-01-22 22:53:00,
2013-01-22 23:02:00,37.0,32.0,29.64,SE,134,13.0,20.0,82,0.01,,,0.13,,2013-01-22 23:02:00,
2013-01-22 23:12:00,37.0,32.0,29.64,SE,134,13.0,20.0,82,0.01,,,0.13,,2013-01-22 23:12:00,
2013-01-22 23:22:00,37.0,32.0,29.65,SSE,164,13.0,20.0,82,0.01,,,0.13,,2013-01-22 23:22:00,
2013-01-22 23:32:00,37.0,32.0,29.65,SE,139,9.0,20.0,82,0.02,,,0.14,,2013-01-22 23:32:00,
2013-01-22 23:42:00,37.0,32.0,29.65,SE,139,9.0,20.0,82,0.02,,,0.14,,2013-01-22 23:42:00,
2013-01-22 23:53:00,37.0,32.0,29.66,SSE,150,9.0,23.0,82,0.01,,,0.14,,2013-01-22 23:53:00,